Terminal Aerodrome Forecast
Issued by NWS

Home | Current Version | Previous Version | Text Only | Print | Product List | Glossary On
Versions: 1 2 3 4 5 6 7 8 9 10 11 12
853
FTUS42 TJSJ 230520
TAFJMZ
TAF
TJMZ 230520Z 2306/2406 07004KT P6SM FEW035 FEW090
     FM230800 00000KT P6SM SKC
     FM231530 33010KT P6SM VCTS SCT025CB BKN050
     FM232200 06006KT P6SM SCT040
      AMD NOT SKED=

USA.gov is the U.S. government's official web portal to all federal, state and local government web resources and services.